Hagerhill, KY (41222)

8:53 AM EDT on September 23, 2014 (GMT -0400)
West Van Lear | Change Station
CLOSE
Current Station
Personal Weather Station
Location: West Van Lear, KY
Elevation: 610 ft
Nearby Weather Stations

Elev 610 ft 37.79 °N, 82.79 °W | Updated 13 minutes ago

Clear
Clear
48.9 °F
Feels Like 49 °F
N
0.0
Wind Variable Wind from West

Today
High -- | Low -- °F
--% Chance of Precip.
Yesterday
High -- | Low -- °F
Precip. -- in
7:19 AM 7:26 PM
Waning Crescent, 1% visible
Pressure 30.32 in
Visibility 0.2 miles
Clouds Overcast 200 ft
Windchill 49 °F
Dew Point 47 °F
Humidity 93%
Rainfall 0.00 in
Snow Depth Not available.
UV 0 out of 12
Pollen 4.30 out of 12
Air Quality Not available.
Flu Activity Not available.
METAR KSJS 231235Z AUTO 00000KT M1/4SM FG OVC002 08/08 A3032 RMK AO2 T00750075

More Conditions Fewer Conditions

Pressure 30.32 in
Visibility 0.2 miles
Clouds Overcast 200 ft
Windchill 49 °F
Dew Point 47 °F
Humidity 93%
Rainfall 0.00 in
Snow Depth Not available.
UV 0 out of 12
Pollen 4.30 out of 12
Air Quality Not available.
Flu Activity Not available.
METAR KSJS 231235Z AUTO 00000KT M1/4SM FG OVC002 08/08 A3032 RMK AO2 T00750075

More Conditions Fewer Conditions

10-Day Weather Forecast

Almanac

Astronomy

Sep. 23, 2014 Rise Set
Actual Time 7:19 AM EDT 7:26 PM EDT
Civil Twilight 6:53 AM EDT 7:52 PM EDT
Nautical Twilight 6:23 AM EDT 8:23 PM EDT
Astronomical Twilight 5:52 AM EDT 8:54 PM EDT
Moon 6:43 AM EDT 7:05 PM EDT
Length of Visible Light 12h 59m
Length of Day
12h 06m
Tomorrow will be 2m 24s shorter.
Waning Crescent, 1% of the Moon is Illuminated
Today
Waning Crescent
Sep 24
New
Oct 1
First Quarter
Oct 8
Full
Oct 15
Last Quarter

Today's Extremes

State Highs State Lows

Community

WunderPhotos

Upload Photos

1,755,662 photos uploaded!

WunderBlogs® & News

Nearby

Snow Depth

Station Depth Elevation
No new snow has been reported.

Earthquake Activity

City Distance Mag. Time & Date
No recent earthquake activity has been reported nearby.
Minimum magnitude displayed is 2.5.

Coastal Water Temperatures

Place Temperature
No Stations Reporting

Nearby Weather Stations